Stations météo

réclame
Mon MeteoGroup
Berlin/Tempelhof, Allemagne (10384): Température de l'air & dewpoint: 12.01.2019 13:00:00 - 18.01.2019 13:00:00 (CET)Berlin/Tempelhof, Allemagne (10384): Température de l'air 5cm & Température de l'air -5cm: 12.01.2019 13:00:00 - 18.01.2019 13:00:00 (CET)Berlin/Tempelhof, Allemagne (10384): Température de l'air -20cm & Température de l'air -100cm: 12.01.2019 13:00:00 - 18.01.2019 13:00:00 (CET)Berlin/Tempelhof, Allemagne (10384): Vitesse du vent & gusts: 12.01.2019 13:00:00 - 18.01.2019 13:00:00 (CET)Berlin/Tempelhof, Allemagne (10384): Direction du vent: 12.01.2019 13:00:00 - 18.01.2019 13:00:00 (CET)Berlin/Tempelhof, Allemagne (10384): reduced air pressure: 12.01.2019 13:00:00 - 18.01.2019 13:00:00 (CET)Berlin/Tempelhof, Allemagne (10384): Ensoleillement: 12.01.2019 13:00:00 - 18.01.2019 13:00:00 (CET)Berlin/Tempelhof, Allemagne (10384): Quantités de précipitations: 12.01.2019 13:00:00 - 18.01.2019 13:00:00 (CET)
Date & Time tt [°C] td [°C] tt 5cm [°C] tt -5cm [°C] tt -20cm [°C] tt -100cm [°C] ff [km/h] ff [knt] fx [km/h] fx [knt] dd ppp [hPa] sd [min] rr [mm]
18.01.2019 13:00:00 - - - - - - - - - - - - - -
18.01.2019 12:00:00 1,1 -3,4 1,7 2,1 3,4 6,1 15 8 29 16 W 1017,6 60 0,0
18.01.2019 11:00:00 0,1 -3,6 0,2 1,5 3,4 6,1 20 11 32 17 WNW 1017,4 60 0,0
18.01.2019 10:00:00 -0,9 -4,1 -2,0 1,6 3,5 6,1 19 10 33 18 WNW 1016,6 60 0,0
18.01.2019 09:00:00 -1,3 -5,5 -2,8 1,7 3,6 6,1 23 12 40 22 NW 1015,2 17 0,0
18.01.2019 08:00:00 -0,9 -5,2 -2,1 1,8 3,7 6,1 25 13 38 21 NW 1013,7 0 0,0
18.01.2019 07:00:00 -0,4 -4,3 -1,5 1,9 3,8 6,1 19 11 37 20 NW 1012,3 0 0,0
18.01.2019 06:00:00 -0,3 -2,8 -1,0 2,0 3,9 6,1 22 12 32 18 NW 1010,8 0 0,0
18.01.2019 05:00:00 -0,5 -2,6 -1,5 2,1 4,0 6,1 23 12 39 21 WNW 1009,6 0 0,0
18.01.2019 04:00:00 -0,4 -2,3 -0,9 2,4 4,1 6,1 24 13 44 24 NW 1008,1 0 0,0
18.01.2019 03:00:00 0,2 -2,3 -0,1 2,7 4,2 6,1 37 20 48 26 NNW 1006,5 0 0,1
18.01.2019 02:00:00 1,3 -0,4 0,6 2,9 4,3 6,1 19 11 46 25 W 1004,8 0 0,2
18.01.2019 01:00:00 2,0 -0,4 1,0 3,1 4,3 6,1 22 12 46 25 W 1004,1 0 0,1
18.01.2019 00:00:00 2,5 0,1 1,6 3,3 4,4 6,1 19 11 31 17 WSW 1003,4 0 0,0
17.01.2019 23:00:00 2,8 0,9 1,6 3,5 4,4 6,1 15 8 36 20 WSW 1002,6 0 0,3
17.01.2019 22:00:00 3,2 1,5 2,5 3,7 4,5 6,1 20 11 33 18 W 1001,7 0 0,0
17.01.2019 21:00:00 3,1 1,6 2,6 3,7 4,5 6,1 18 10 34 18 W 1000,7 0 0,1
17.01.2019 20:00:00 3,1 1,5 2,3 3,9 4,6 6,1 17 9 37 20 W 999,5 0 1,3
17.01.2019 19:00:00 3,7 1,6 2,7 4,0 4,6 6,1 15 8 30 16 W 998,8 0 1,9
17.01.2019 18:00:00 5,5 1,8 4,1 4,0 4,7 6,1 11 6 24 13 WSW 998,5 0 0,0
17.01.2019 17:00:00 5,6 0,7 3,9 4,3 4,7 6,1 11 6 23 13 SSW 998,5 0 0,0
17.01.2019 16:00:00 6,5 0,3 4,5 5,0 4,7 6,1 13 7 33 18 SSW 998,6 22 0,0
17.01.2019 15:00:00 7,0 -0,8 6,1 5,4 4,6 6,1 21 12 39 21 WSW 998,9 39 0,0
17.01.2019 14:00:00 7,0 -0,2 7,2 5,0 4,5 6,1 25 13 40 22 WSW 999,4 12 0,0
17.01.2019 13:00:00 6,4 0,8 6,4 4,8 4,4 6,1 20 11 35 19 W 999,8 0 0,0
17.01.2019 12:00:00 6,1 1,2 6,0 4,4 4,3 6,1 19 10 37 20 WSW 1000,4 0 0,0
17.01.2019 11:00:00 5,9 2,0 5,9 4,1 4,2 6,1 19 10 38 21 WSW 1000,5 0 0,0
17.01.2019 10:00:00 5,7 1,8 5,4 3,8 4,2 6,1 18 10 32 17 W 1000,0 0 0,0
17.01.2019 09:00:00 5,6 1,7 5,0 3,7 4,2 6,1 22 12 38 21 WSW 999,5 0 0,0
17.01.2019 08:00:00 5,6 1,4 4,9 3,5 4,2 6,1 20 11 39 21 W 999,1 0 0,0
17.01.2019 07:00:00 5,3 0,9 4,5 3,4 4,2 6,1 18 10 30 16 SW 998,5 0 0,0
17.01.2019 06:00:00 4,6 0,4 3,9 3,2 4,2 6,1 16 9 29 16 SW 998,5 0 0,0
17.01.2019 05:00:00 4,4 0,0 3,7 3,1 4,3 6,1 15 8 35 19 SW 998,4 0 0,0
17.01.2019 04:00:00 3,9 -0,3 3,4 2,9 4,3 6,1 16 9 31 17 SW 998,7 0 0,0
17.01.2019 03:00:00 3,1 -0,2 1,8 2,9 4,4 6,1 11 6 19 11 SSW 999,2 0 0,0
17.01.2019 02:00:00 2,9 -0,2 1,6 3,1 4,5 6,1 11 6 22 12 SSW 999,6 0 0,0
17.01.2019 01:00:00 3,2 -0,2 1,7 3,4 4,6 6,1 11 6 20 11 SSW 1000,4 0 0,0
17.01.2019 00:00:00 3,7 0,0 2,1 3,7 4,7 6,1 13 7 24 13 SSW 1001,4 0 0,0
16.01.2019 23:00:00 4,4 0,3 3,0 4,1 4,8 6,1 15 8 26 14 SSW 1002,2 0 0,0
16.01.2019 22:00:00 5,0 0,0 4,3 4,3 4,8 6,1 17 9 32 17 SW 1002,8 0 0,0
16.01.2019 21:00:00 5,4 0,4 4,7 4,5 4,9 6,1 20 11 37 20 SW 1003,5 0 0,0
16.01.2019 20:00:00 5,7 0,9 5,0 4,7 4,9 6,1 18 10 35 19 SW 1004,1 0 0,0
16.01.2019 19:00:00 6,1 1,6 5,4 4,8 4,9 6,1 19 10 41 22 SW 1004,6 0 0,0
16.01.2019 18:00:00 6,4 2,4 5,7 5,0 4,9 6,1 17 9 39 21 SW 1005,0 0 0,0
16.01.2019 17:00:00 6,7 2,9 6,0 5,1 4,9 6,1 20 11 34 18 SW 1005,6 0 0,0
16.01.2019 16:00:00 6,8 3,2 6,2 5,2 4,8 6,1 20 11 33 18 SW 1006,0 0 0,0
16.01.2019 15:00:00 6,9 3,3 6,4 5,3 4,8 6,1 16 9 27 15 SW 1006,3 0 0,0
16.01.2019 14:00:00 6,9 3,4 6,7 5,3 4,7 6,1 16 9 28 15 SW 1006,8 0 0,0
16.01.2019 13:00:00 6,8 3,6 6,7 5,1 4,7 6,1 15 8 27 15 SW 1007,4 0 0,0
16.01.2019 12:00:00 6,2 3,4 5,8 5,0 4,7 6,1 16 9 25 14 SW 1008,1 0 0,0
16.01.2019 11:00:00 6,3 3,9 5,5 4,9 4,6 6,1 17 9 35 19 SW 1008,6 0 0,0
16.01.2019 10:00:00 6,6 3,7 6,2 4,9 4,6 6,1 17 9 28 15 WSW 1008,6 0 0,0
16.01.2019 09:00:00 6,4 3,6 5,8 4,8 4,6 6,1 16 9 34 18 WSW 1008,7 0 0,0
16.01.2019 08:00:00 6,5 3,6 5,6 4,9 4,6 6,1 17 9 33 18 WSW 1008,5 0 0,0
16.01.2019 07:00:00 6,8 3,9 5,7 4,9 4,5 6,1 18 10 36 20 W 1008,4 0 0,0
16.01.2019 06:00:00 6,7 4,9 5,8 5,0 4,5 6,1 18 10 35 19 W 1008,4 0 0,2
16.01.2019 05:00:00 6,8 5,2 6,0 5,0 4,4 6,1 23 13 38 20 W 1008,6 0 0,3
16.01.2019 04:00:00 7,1 5,2 6,3 4,9 4,3 6,1 27 14 43 23 W 1008,5 0 0,0
16.01.2019 03:00:00 7,2 5,0 6,7 4,8 4,2 6,2 26 14 49 26 W 1008,0 0 0,0
16.01.2019 02:00:00 7,0 4,7 6,2 4,7 4,2 6,2 30 16 46 25 W 1007,3 0 0,0
16.01.2019 01:00:00 6,7 4,7 5,9 4,6 4,1 6,2 27 14 50 27 W 1007,3 0 0,0
16.01.2019 00:00:00 6,5 5,0 5,7 4,6 4,0 6,2 27 15 44 24 W 1007,5 0 0,4
15.01.2019 23:00:00 6,4 5,2 5,7 4,4 3,9 6,2 26 14 46 25 W 1007,6 0 0,4
15.01.2019 22:00:00 6,4 5,1 5,7 4,3 3,8 6,2 29 16 46 25 W 1007,4 0 0,0
15.01.2019 21:00:00 6,4 4,8 5,6 4,1 3,7 6,2 29 16 51 27 W 1006,9 0 0,0
15.01.2019 20:00:00 6,3 4,5 5,5 3,9 3,6 6,2 30 16 47 26 W 1006,6 0 0,0
15.01.2019 19:00:00 6,1 4,0 5,2 3,7 3,5 6,2 25 13 48 26 W 1006,7 0 0,0
15.01.2019 18:00:00 5,7 3,9 4,9 3,6 3,4 6,2 27 15 45 24 W 1006,9 0 0,0
15.01.2019 17:00:00 5,3 3,7 4,5 3,4 3,3 6,2 24 13 45 25 W 1007,4 0 0,1
15.01.2019 16:00:00 4,9 3,3 4,2 3,2 3,2 6,2 22 12 45 24 W 1007,7 0 0,2
15.01.2019 15:00:00 4,5 2,9 3,7 3,1 3,1 6,2 23 12 38 21 W 1008,0 0 0,2
15.01.2019 14:00:00 4,5 2,2 3,7 2,8 3,0 6,2 23 13 41 22 W 1009,0 0 0,0
15.01.2019 13:00:00 3,9 1,3 3,2 2,4 2,9 6,2 26 14 43 23 W 1009,5 0 0,0
15.01.2019 12:00:00 3,7 0,8 3,0 1,8 2,9 6,2 26 14 43 23 W 1009,9 0 0,1
15.01.2019 11:00:00 3,3 0,1 3,0 1,3 2,9 6,2 30 16 50 27 W 1010,3 0 0,0
15.01.2019 10:00:00 3,5 -0,4 2,9 1,2 2,9 6,2 29 16 48 26 W 1010,1 0 0,0
15.01.2019 09:00:00 3,5 -1,1 2,9 1,1 2,9 6,2 31 17 50 27 W 1010,1 0 0,0
15.01.2019 08:00:00 3,4 -1,2 2,7 1,1 2,9 6,2 30 16 50 27 W 1010,4 0 0,0
15.01.2019 07:00:00 3,1 -1,0 2,4 1,1 3,0 6,2 27 15 45 24 W 1010,5 0 0,0
15.01.2019 06:00:00 2,5 -1,2 1,9 1,1 3,0 6,2 26 14 40 21 W 1010,8 0 0,0
15.01.2019 05:00:00 1,6 -2,0 0,3 1,1 3,1 6,3 26 14 44 24 W 1010,5 0 0,0
15.01.2019 04:00:00 2,3 -2,1 1,5 1,2 3,1 6,3 24 13 53 29 WNW 1010,5 0 0,0
15.01.2019 03:00:00 2,1 -2,3 0,7 1,2 3,2 6,3 26 14 46 25 WNW 1010,1 0 0,0
15.01.2019 02:00:00 1,8 -2,3 0,8 1,2 3,2 6,3 29 16 45 24 WNW 1009,4 0 0,0
15.01.2019 01:00:00 1,4 -2,9 0,8 1,2 3,3 6,3 26 14 39 21 W 1009,3 0 0,0
15.01.2019 00:00:00 0,6 -3,2 -0,6 1,3 3,4 6,3 19 11 39 21 W 1009,4 0 0,0
14.01.2019 23:00:00 0,7 -3,4 0,0 1,3 3,4 6,3 23 12 38 21 W 1009,2 0 0,0
14.01.2019 22:00:00 0,8 -3,7 -0,9 1,4 3,5 6,2 27 15 44 24 WNW 1009,0 0 0,0
14.01.2019 21:00:00 1,0 -4,0 -0,4 1,5 3,6 6,2 27 14 42 23 WNW 1008,3 0 0,0
14.01.2019 20:00:00 0,6 -5,2 -1,2 1,6 3,7 6,2 25 13 37 20 WNW 1007,8 0 0,0
14.01.2019 19:00:00 0,8 -5,5 -0,8 1,7 3,8 6,2 25 14 43 23 WNW 1007,1 0 0,0
14.01.2019 18:00:00 1,1 -6,0 -0,6 1,9 4,0 6,2 27 15 42 23 WNW 1006,4 0 0,0
14.01.2019 17:00:00 1,5 -6,9 -0,1 2,2 4,1 6,2 38 21 57 31 NW 1005,4 0 0,0
14.01.2019 16:00:00 1,6 -5,3 0,0 2,7 4,1 6,2 29 16 60 33 NW 1004,3 21 0,0
14.01.2019 15:00:00 1,4 -5,6 1,6 3,1 4,2 6,2 34 18 65 35 NNW 1003,0 8 0,0
14.01.2019 14:00:00 2,8 -6,6 2,4 3,4 4,2 6,2 42 23 69 38 NW 1001,6 0 0,0
14.01.2019 13:00:00 3,1 -6,3 3,0 3,8 4,1 6,2 46 25 74 40 NW 1001,0 34 0,0
14.01.2019 12:00:00 3,4 -4,6 4,7 3,4 4,2 6,2 32 17 65 35 WNW 1000,3 56 0,0
14.01.2019 11:00:00 2,9 -5,3 3,0 2,5 4,3 6,2 34 18 57 31 WNW 1000,3 53 0,0
14.01.2019 10:00:00 2,3 -4,3 1,3 2,4 4,4 6,2 35 19 59 32 WNW 999,7 4 0,0
14.01.2019 09:00:00 2,4 -5,1 1,2 2,5 4,5 6,2 37 20 73 39 NW 998,9 0 0,0
14.01.2019 08:00:00 2,7 -2,8 1,9 2,7 4,7 6,2 33 18 56 30 WNW 997,2 0 0,0
14.01.2019 07:00:00 3,1 -3,8 2,1 3,1 4,8 6,2 29 16 58 32 WNW 996,4 0 0,0
14.01.2019 06:00:00 3,1 -3,2 1,5 3,7 4,9 6,2 40 22 63 34 NW 996,0 0 0,0
14.01.2019 05:00:00 4,2 -1,0 3,4 4,0 5,0 6,2 38 21 62 33 NW 994,6 0 0,0
14.01.2019 04:00:00 4,6 -0,4 3,7 4,2 5,1 6,2 40 22 59 32 WNW 992,9 0 0,0
14.01.2019 03:00:00 4,6 0,5 3,4 4,4 5,1 6,2 37 20 58 31 WNW 991,3 0 0,0
14.01.2019 02:00:00 4,6 0,6 3,1 4,7 5,2 6,2 37 20 65 35 WNW 990,0 0 0,1
14.01.2019 01:00:00 6,0 1,5 5,0 4,9 5,3 6,2 35 19 59 32 WNW 988,6 0 0,0
14.01.2019 00:00:00 6,4 3,1 5,1 5,2 5,3 6,2 33 18 55 30 W 987,7 0 0,0
13.01.2019 23:00:00 6,3 3,6 5,1 5,3 5,3 6,2 32 17 51 28 WNW 987,8 0 0,4
13.01.2019 22:00:00 6,6 3,5 5,9 5,5 5,3 6,2 31 17 63 34 WNW 987,6 0 0,0
13.01.2019 21:00:00 7,0 4,1 5,9 5,7 5,3 6,2 32 17 50 27 WNW 987,4 0 0,0
13.01.2019 20:00:00 7,4 4,5 6,2 5,9 5,2 6,2 29 16 55 30 WNW 986,9 0 0,3
13.01.2019 19:00:00 8,1 6,5 7,3 6,0 5,2 6,2 23 13 37 20 W 987,1 0 0,7
13.01.2019 18:00:00 8,1 6,8 7,3 5,9 5,1 6,2 23 12 39 21 W 988,4 0 0,0
13.01.2019 17:00:00 8,0 6,9 7,2 5,8 5,1 6,2 21 11 41 22 W 989,6 0 0,1
13.01.2019 16:00:00 7,6 6,6 7,1 5,7 5,0 6,2 23 13 40 22 W 990,8 0 0,1
13.01.2019 15:00:00 6,9 6,0 6,4 5,5 4,9 6,2 23 12 38 21 W 991,8 0 0,2
13.01.2019 14:00:00 6,3 5,4 5,9 5,5 4,9 6,2 22 12 37 20 WSW 993,0 0 0,9
13.01.2019 13:00:00 6,2 5,0 5,7 5,4 4,8 6,2 23 12 37 20 SW 994,8 0 0,6
13.01.2019 12:00:00 6,2 4,9 5,7 5,2 4,7 6,2 18 10 39 21 WSW 996,7 0 0,6
13.01.2019 11:00:00 6,2 4,7 5,7 5,0 4,7 6,2 23 12 42 23 W 998,5 0 0,4
13.01.2019 10:00:00 6,2 4,3 5,4 4,8 4,7 6,2 19 11 34 18 W 999,8 0 0,0
13.01.2019 09:00:00 5,9 4,1 5,1 4,7 4,7 6,2 16 8 31 17 W 1000,6 0 0,0
13.01.2019 08:00:00 5,7 4,2 4,9 4,6 4,6 6,2 18 10 29 16 WSW 1001,2 0 0,0
13.01.2019 07:00:00 5,5 4,4 4,9 4,6 4,6 6,2 17 9 34 18 W 1001,7 0 0,0
13.01.2019 06:00:00 5,5 4,3 4,9 4,6 4,6 6,2 17 9 32 17 W 1001,9 0 0,2
13.01.2019 05:00:00 5,4 4,3 4,8 4,6 4,6 6,2 19 10 29 16 W 1002,4 0 0,2
13.01.2019 04:00:00 5,5 3,5 4,7 4,5 4,6 6,2 21 11 44 24 W 1002,6 0 0,0
13.01.2019 03:00:00 5,5 3,3 4,4 4,6 4,6 6,2 25 13 48 26 WNW 1002,7 0 0,1
13.01.2019 02:00:00 5,7 4,0 4,9 4,6 4,6 6,2 24 13 39 21 W 1002,6 0 0,1
13.01.2019 01:00:00 5,8 3,9 4,8 4,6 4,6 6,2 23 13 38 20 W 1002,6 0 0,0
13.01.2019 00:00:00 5,8 4,3 5,0 4,6 4,5 6,2 21 12 35 19 W 1003,1 0 0,3
12.01.2019 23:00:00 5,7 4,3 5,0 4,6 4,5 6,2 16 9 41 22 W 1003,5 0 0,1
12.01.2019 22:00:00 5,9 4,2 5,3 4,6 4,5 6,2 20 11 39 21 W 1003,9 0 0,0
12.01.2019 21:00:00 5,8 4,3 5,1 4,5 4,5 6,2 19 11 31 17 W 1004,3 0 0,2
12.01.2019 20:00:00 5,5 4,3 4,9 4,5 4,5 6,2 21 11 36 19 W 1004,7 0 0,1
12.01.2019 19:00:00 5,0 4,0 4,5 4,5 4,4 6,2 16 9 31 17 WSW 1004,7 0 0,7
12.01.2019 18:00:00 5,0 3,7 4,3 4,5 4,4 6,2 21 11 40 22 WSW 1005,5 0 0,7
12.01.2019 17:00:00 4,9 3,8 4,3 4,6 4,4 6,2 17 9 32 17 WSW 1006,4 0 0,2
12.01.2019 16:00:00 5,0 3,3 4,3 4,7 4,4 6,2 19 10 34 18 WSW 1007,6 0 0,5
12.01.2019 15:00:00 5,9 2,5 5,2 4,9 4,3 6,2 24 13 40 22 W 1008,6 0 0,0
12.01.2019 14:00:00 5,9 3,4 5,6 4,9 4,2 6,2 19 11 37 20 WSW 1009,6 0 0,0
12.01.2019 13:00:00 6,0 3,6 5,4 4,7 4,1 6,2 23 13 38 21 W 1010,8 0 0,1

tt = Température de l'air
td = dewpoint
tt 5cm = Température de l'air 5cm
tt -5cm = Température de l'air -5cm
tt -20cm = Température de l'air -20cm
tt -100cm = Température de l'air -100cm
ff = Vitesse du vent
fx = gusts
dd = Direction du vent
ppp = reduced air pressure
sd = Ensoleillement
rr = Quantités de précipitations

stations d'obs. à proximité